sensor_id;sensor_type;location;lat;lon;timestamp;pressure;altitude;pressure_sealevel;temperature;humidity
34185;BME280;20454;48.100;11.776;2023-04-07T00:00:57;95434.63;;;1.93;72.97
34185;BME280;20454;48.100;11.776;2023-04-07T00:03:23;95441.50;;;1.95;73.00
34185;BME280;20454;48.100;11.776;2023-04-07T00:05:48;95428.59;;;1.91;73.28
34185;BME280;20454;48.100;11.776;2023-04-07T00:08:14;95426.69;;;1.91;72.99
34185;BME280;20454;48.100;11.776;2023-04-07T00:10:40;95428.59;;;1.91;72.93
34185;BME280;20454;48.100;11.776;2023-04-07T00:13:05;95419.25;;;1.82;72.88
34185;BME280;20454;48.100;11.776;2023-04-07T00:15:31;95437.38;;;1.93;72.52
34185;BME280;20454;48.100;11.776;2023-04-07T00:17:57;95424.22;;;1.90;72.89
34185;BME280;20454;48.100;11.776;2023-04-07T00:20:23;95420.94;;;1.88;72.77
34185;BME280;20454;48.100;11.776;2023-04-07T00:22:48;95425.84;;;1.91;72.75
34185;BME280;20454;48.100;11.776;2023-04-07T00:25:14;95429.44;;;1.91;72.96
34185;BME280;20454;48.100;11.776;2023-04-07T00:27:40;95425.31;;;1.89;72.48
34185;BME280;20454;48.100;11.776;2023-04-07T00:30:06;95420.38;;;1.91;72.28
34185;BME280;20454;48.100;11.776;2023-04-07T00:32:32;95422.31;;;1.90;72.34
34185;BME280;20454;48.100;11.776;2023-04-07T00:34:58;95417.38;;;1.92;72.41
34185;BME280;20454;48.100;11.776;2023-04-07T00:37:23;95415.16;;;1.89;72.41
34185;BME280;20454;48.100;11.776;2023-04-07T00:39:50;95420.34;;;1.86;73.01
34185;BME280;20454;48.100;11.776;2023-04-07T00:42:16;95420.34;;;1.86;73.17
34185;BME280;20454;48.100;11.776;2023-04-07T00:44:42;95425.03;;;1.85;73.20
34185;BME280;20454;48.100;11.776;2023-04-07T00:47:07;95409.41;;;1.81;72.97
34185;BME280;20454;48.100;11.776;2023-04-07T00:49:33;95413.22;;;1.85;73.77
34185;BME280;20454;48.100;11.776;2023-04-07T00:51:59;95411.03;;;1.82;73.94
34185;BME280;20454;48.100;11.776;2023-04-07T00:54:25;95410.22;;;1.76;74.00
34185;BME280;20454;48.100;11.776;2023-04-07T00:56:51;95402.75;;;1.72;73.95
34185;BME280;20454;48.100;11.776;2023-04-07T00:59:17;95412.38;;;1.74;74.37
34185;BME280;20454;48.100;11.776;2023-04-07T01:01:49;95405.78;;;1.75;74.18
34185;BME280;20454;48.100;11.776;2023-04-07T01:07:17;95395.13;;;1.74;74.64
34185;BME280;20454;48.100;11.776;2023-04-07T01:09:56;95397.03;;;1.73;74.39
34185;BME280;20454;48.100;11.776;2023-04-07T01:14:58;95391.53;;;1.68;74.89
34185;BME280;20454;48.100;11.776;2023-04-07T01:17:25;95385.78;;;1.70;75.44
34185;BME280;20454;48.100;11.776;2023-04-07T01:19:57;95387.97;;;1.68;75.14
34185;BME280;20454;48.100;11.776;2023-04-07T01:22:40;95387.41;;;1.66;75.03
34185;BME280;20454;48.100;11.776;2023-04-07T01:30:43;95386.31;;;1.62;74.99
34185;BME280;20454;48.100;11.776;2023-04-07T01:33:10;95395.06;;;1.64;75.42
34185;BME280;20454;48.100;11.776;2023-04-07T01:35:36;95385.47;;;1.61;75.54
34185;BME280;20454;48.100;11.776;2023-04-07T01:38:03;95388.22;;;1.61;75.56
34185;BME280;20454;48.100;11.776;2023-04-07T01:40:29;95383.03;;;1.60;75.91
34185;BME280;20454;48.100;11.776;2023-04-07T01:42:57;95376.97;;;1.53;76.47
34185;BME280;20454;48.100;11.776;2023-04-07T01:45:23;95380.28;;;1.60;76.51
34185;BME280;20454;48.100;11.776;2023-04-07T01:47:51;95385.75;;;1.60;76.60
34185;BME280;20454;48.100;11.776;2023-04-07T01:50:17;95392.31;;;1.59;76.50
34185;BME280;20454;48.100;11.776;2023-04-07T01:52:44;95398.91;;;1.63;76.83
34185;BME280;20454;48.100;11.776;2023-04-07T01:55:10;95389.84;;;1.62;77.41
34185;BME280;20454;48.100;11.776;2023-04-07T01:57:35;95384.91;;;1.59;77.95
34185;BME280;20454;48.100;11.776;2023-04-07T02:00:01;95394.56;;;1.67;77.90
34185;BME280;20454;48.100;11.776;2023-04-07T04:01:39;95343.25;;;4.04;89.32
34185;BME280;20454;48.100;11.776;2023-04-07T04:04:05;95349.31;;;4.06;89.52
34185;BME280;20454;48.100;11.776;2023-04-07T04:06:30;95349.25;;;4.11;89.84
34185;BME280;20454;48.100;11.776;2023-04-07T04:08:56;95345.69;;;4.11;90.29
34185;BME280;20454;48.100;11.776;2023-04-07T04:11:22;95337.44;;;4.11;90.46
34185;BME280;20454;48.100;11.776;2023-04-07T04:13:48;95338.31;;;4.06;90.25
34185;BME280;20454;48.100;11.776;2023-04-07T04:16:13;95344.09;;;4.05;91.00
34185;BME280;20454;48.100;11.776;2023-04-07T04:18:39;95342.19;;;4.00;91.41
34185;BME280;20454;48.100;11.776;2023-04-07T04:21:05;95344.13;;;4.00;92.12
34185;BME280;20454;48.100;11.776;2023-04-07T04:23:31;95335.34;;;3.98;92.24
34185;BME280;20454;48.100;11.776;2023-04-07T04:25:56;95342.22;;;3.95;92.37
34185;BME280;20454;48.100;11.776;2023-04-07T04:28:24;95336.72;;;3.95;92.36
34185;BME280;20454;48.100;11.776;2023-04-07T04:30:50;95332.91;;;3.91;92.27
34185;BME280;20454;48.100;11.776;2023-04-07T04:33:15;95334.25;;;3.94;92.70
34185;BME280;20454;48.100;11.776;2023-04-07T04:35:41;95330.97;;;3.92;92.63
34185;BME280;20454;48.100;11.776;2023-04-07T04:38:07;95332.31;;;3.94;92.33
34185;BME280;20454;48.100;11.776;2023-04-07T04:40:32;95336.19;;;3.93;92.34
34185;BME280;20454;48.100;11.776;2023-04-07T04:42:58;95342.50;;;3.94;92.33
34185;BME280;20454;48.100;11.776;2023-04-07T06:00:32;95274.03;;;4.21;94.01
34185;BME280;20454;48.100;11.776;2023-04-07T06:02:58;95305.75;;;4.47;94.07
34185;BME280;20454;48.100;11.776;2023-04-07T06:05:23;95311.25;;;4.52;95.00
34185;BME280;20454;48.100;11.776;2023-04-07T06:07:50;95316.16;;;4.54;94.97
34185;BME280;20454;48.100;11.776;2023-04-07T06:10:15;95311.75;;;4.53;94.65
34185;BME280;20454;48.100;11.776;2023-04-07T06:12:41;95313.63;;;4.58;93.77
34185;BME280;20454;48.100;11.776;2023-04-07T06:15:07;95308.72;;;4.55;94.02
34185;BME280;20454;48.100;11.776;2023-04-07T06:17:33;95304.81;;;4.61;93.82
34185;BME280;20454;48.100;11.776;2023-04-07T06:19:58;95311.09;;;4.66;93.89
34185;BME280;20454;48.100;11.776;2023-04-07T06:22:24;95304.69;;;4.71;93.57
34185;BME280;20454;48.100;11.776;2023-04-07T06:24:50;95307.13;;;4.77;93.14
34185;BME280;20454;48.100;11.776;2023-04-07T06:27:15;95306.78;;;4.84;93.19
34185;BME280;20454;48.100;11.776;2023-04-07T06:29:41;95309.19;;;4.90;92.74
34185;BME280;20454;48.100;11.776;2023-04-07T06:32:07;95308.31;;;4.95;92.44
34185;BME280;20454;48.100;11.776;2023-04-07T06:34:32;95313.19;;;5.03;91.76
34185;BME280;20454;48.100;11.776;2023-04-07T06:36:58;95290.03;;;5.04;91.67
34185;BME280;20454;48.100;11.776;2023-04-07T06:39:25;95310.25;;;5.18;91.79
34185;BME280;20454;48.100;11.776;2023-04-07T06:41:51;95304.47;;;5.19;91.13
34185;BME280;20454;48.100;11.776;2023-04-07T06:44:17;95301.34;;;5.26;91.33
34185;BME280;20454;48.100;11.776;2023-04-07T06:46:42;95290.03;;;5.27;90.46
34185;BME280;20454;48.100;11.776;2023-04-07T06:49:11;95288.25;;;5.36;90.25
34185;BME280;20454;48.100;11.776;2023-04-07T06:51:37;95277.72;;;5.38;90.31
34185;BME280;20454;48.100;11.776;2023-04-07T06:54:03;95278.06;;;5.55;89.58
34185;BME280;20454;48.100;11.776;2023-04-07T06:56:29;95284.22;;;5.71;89.61
34185;BME280;20454;48.100;11.776;2023-04-07T06:58:55;95283.19;;;5.85;89.13
34185;BME280;20454;48.100;11.776;2023-04-07T16:00:27;95151.13;;;12.02;53.35
34185;BME280;20454;48.100;11.776;2023-04-07T16:02:54;95176.81;;;12.08;53.84
34185;BME280;20454;48.100;11.776;2023-04-07T16:05:22;95175.59;;;11.97;53.80
34185;BME280;20454;48.100;11.776;2023-04-07T16:07:48;95181.44;;;12.04;55.51
34185;BME280;20454;48.100;11.776;2023-04-07T16:10:14;95182.47;;;11.99;55.11
34185;BME280;20454;48.100;11.776;2023-04-07T16:12:40;95188.38;;;11.98;54.74
34185;BME280;20454;48.100;11.776;2023-04-07T16:15:06;95184.47;;;11.90;54.85
34185;BME280;20454;48.100;11.776;2023-04-07T16:17:32;95175.38;;;11.81;54.77
34185;BME280;20454;48.100;11.776;2023-04-07T16:19:58;95190.78;;;11.79;54.98
34185;BME280;20454;48.100;11.776;2023-04-07T16:22:24;95197.06;;;11.76;55.13
34185;BME280;20454;48.100;11.776;2023-04-07T16:24:50;95196.41;;;11.70;55.07
34185;BME280;20454;48.100;11.776;2023-04-07T16:27:16;95191.72;;;11.62;55.57
34185;BME280;20454;48.100;11.776;2023-04-07T16:29:41;95196.50;;;11.53;55.88
34185;BME280;20454;48.100;11.776;2023-04-07T16:32:07;95202.56;;;11.47;56.14
34185;BME280;20454;48.100;11.776;2023-04-07T16:34:33;95199.34;;;11.36;56.33
34185;BME280;20454;48.100;11.776;2023-04-07T16:36:59;95209.06;;;11.30;56.45
34185;BME280;20454;48.100;11.776;2023-04-07T16:39:24;95206.78;;;11.24;57.13
34185;BME280;20454;48.100;11.776;2023-04-07T16:41:50;95207.16;;;11.14;56.95
34185;BME280;20454;48.100;11.776;2023-04-07T16:44:16;95213.22;;;11.07;57.58
34185;BME280;20454;48.100;11.776;2023-04-07T16:46:42;95218.00;;;10.98;57.99
34185;BME280;20454;48.100;11.776;2023-04-07T16:49:07;95212.44;;;10.90;57.55
34185;BME280;20454;48.100;11.776;2023-04-07T16:51:34;95214.91;;;10.83;57.64
34185;BME280;20454;48.100;11.776;2023-04-07T16:54:00;95216.06;;;10.82;57.86
34185;BME280;20454;48.100;11.776;2023-04-07T16:56:26;95218.69;;;10.78;58.56
34185;BME280;20454;48.100;11.776;2023-04-07T16:58:51;95218.88;;;10.73;58.25
34185;BME280;20454;48.100;11.776;2023-04-07T17:01:17;95225.91;;;10.71;58.77
34185;BME280;20454;48.100;11.776;2023-04-07T17:03:44;95224.94;;;10.67;59.83
34185;BME280;20454;48.100;11.776;2023-04-07T17:06:10;95228.38;;;10.64;59.53
34185;BME280;20454;48.100;11.776;2023-04-07T17:08:37;95226.25;;;10.61;60.13
34185;BME280;20454;48.100;11.776;2023-04-07T17:11:06;95228.72;;;10.54;59.45
34185;BME280;20454;48.100;11.776;2023-04-07T17:13:32;95228.06;;;10.48;59.94
34185;BME280;20454;48.100;11.776;2023-04-07T17:16:02;95233.97;;;10.47;59.87
34185;BME280;20454;48.100;11.776;2023-04-07T17:18:28;95236.25;;;10.45;59.91
34185;BME280;20454;48.100;11.776;2023-04-07T17:20:54;95230.38;;;10.38;59.93
34185;BME280;20454;48.100;11.776;2023-04-07T17:23:19;95244.28;;;10.38;59.92
34185;BME280;20454;48.100;11.776;2023-04-07T17:25:47;95246.06;;;10.34;60.00
34185;BME280;20454;48.100;11.776;2023-04-07T17:28:14;95251.63;;;10.34;60.59
34185;BME280;20454;48.100;11.776;2023-04-07T17:30:39;95254.56;;;10.29;61.03
34185;BME280;20454;48.100;11.776;2023-04-07T17:33:06;95251.97;;;10.24;61.30
34185;BME280;20454;48.100;11.776;2023-04-07T17:35:35;95247.88;;;10.21;60.95
34185;BME280;20454;48.100;11.776;2023-04-07T17:38:01;95253.25;;;10.18;61.38
34185;BME280;20454;48.100;11.776;2023-04-07T17:40:30;95259.63;;;10.18;61.78
34185;BME280;20454;48.100;11.776;2023-04-07T17:42:57;95261.09;;;10.16;61.91
34185;BME280;20454;48.100;11.776;2023-04-07T17:45:23;95256.50;;;10.11;62.50
34185;BME280;20454;48.100;11.776;2023-04-07T17:47:49;95271.06;;;10.08;62.87
34185;BME280;20454;48.100;11.776;2023-04-07T17:50:16;95267.91;;;10.01;62.98
34185;BME280;20454;48.100;11.776;2023-04-07T17:52:41;95267.88;;;9.93;62.82
34185;BME280;20454;48.100;11.776;2023-04-07T17:55:08;95273.94;;;9.86;63.44
34185;BME280;20454;48.100;11.776;2023-04-07T17:57:34;95261.63;;;9.70;63.57
34185;BME280;20454;48.100;11.776;2023-04-07T18:00:01;95280.88;;;9.67;63.88
34185;BME280;20454;48.100;11.776;2023-04-07T18:02:27;95287.41;;;9.54;64.18
34185;BME280;20454;48.100;11.776;2023-04-07T18:04:53;95282.44;;;9.43;64.88
34185;BME280;20454;48.100;11.776;2023-04-07T18:07:19;95289.72;;;9.30;65.84
34185;BME280;20454;48.100;11.776;2023-04-07T18:09:45;95289.00;;;9.16;66.37
34185;BME280;20454;48.100;11.776;2023-04-07T18:12:11;95291.53;;;9.04;66.16
34185;BME280;20454;48.100;11.776;2023-04-07T18:14:36;95298.31;;;8.90;67.26
34185;BME280;20454;48.100;11.776;2023-04-07T18:17:02;95297.59;;;8.76;68.30
34185;BME280;20454;48.100;11.776;2023-04-07T18:19:28;95305.00;;;8.67;68.94
34185;BME280;20454;48.100;11.776;2023-04-07T18:21:54;95307.84;;;8.53;69.54
34185;BME280;20454;48.100;11.776;2023-04-07T18:24:20;95305.09;;;8.40;70.42
34185;BME280;20454;48.100;11.776;2023-04-07T18:26:46;95313.97;;;8.28;70.43
34185;BME280;20454;48.100;11.776;2023-04-07T18:29:12;95328.34;;;8.17;70.78
34185;BME280;20454;48.100;11.776;2023-04-07T18:31:39;95331.84;;;8.09;71.10
34185;BME280;20454;48.100;11.776;2023-04-07T18:34:06;95321.50;;;8.01;72.08
34185;BME280;20454;48.100;11.776;2023-04-07T18:36:33;95327.78;;;7.93;73.45
34185;BME280;20454;48.100;11.776;2023-04-07T18:38:58;95329.63;;;7.84;73.43
34185;BME280;20454;48.100;11.776;2023-04-07T18:41:24;95328.31;;;7.81;73.53
34185;BME280;20454;48.100;11.776;2023-04-07T18:43:50;95324.13;;;7.70;74.08
34185;BME280;20454;48.100;11.776;2023-04-07T18:46:16;95335.50;;;7.69;74.76
34185;BME280;20454;48.100;11.776;2023-04-07T18:48:41;95335.28;;;7.65;75.07
34185;BME280;20454;48.100;11.776;2023-04-07T18:51:09;95338.69;;;7.62;75.04
34185;BME280;20454;48.100;11.776;2023-04-07T18:53:35;95357.53;;;7.60;75.83
34185;BME280;20454;48.100;11.776;2023-04-07T18:56:01;95352.63;;;7.57;75.75
34185;BME280;20454;48.100;11.776;2023-04-07T19:39:54;95391.06;;;7.59;77.39
34185;BME280;20454;48.100;11.776;2023-04-07T19:42:20;95388.59;;;7.57;77.65
34185;BME280;20454;48.100;11.776;2023-04-07T19:44:46;95394.13;;;7.57;78.06
34185;BME280;20454;48.100;11.776;2023-04-07T19:47:12;95389.22;;;7.54;77.76
34185;BME280;20454;48.100;11.776;2023-04-07T19:49:37;95392.78;;;7.55;77.91
34185;BME280;20454;48.100;11.776;2023-04-07T19:52:03;95397.63;;;7.49;77.85
34185;BME280;20454;48.100;11.776;2023-04-07T19:54:29;95403.66;;;7.51;78.03
34185;BME280;20454;48.100;11.776;2023-04-07T19:56:54;95387.97;;;7.47;78.32
34185;BME280;20454;48.100;11.776;2023-04-07T19:59:20;95401.19;;;7.50;78.31
34185;BME280;20454;48.100;11.776;2023-04-07T20:01:45;95395.78;;;7.45;78.62
34185;BME280;20454;48.100;11.776;2023-04-07T20:04:11;95401.59;;;7.43;78.27
34185;BME280;20454;48.100;11.776;2023-04-07T20:06:37;95403.53;;;7.43;78.62
34185;BME280;20454;48.100;11.776;2023-04-07T20:09:04;95400.75;;;7.43;78.62
34185;BME280;20454;48.100;11.776;2023-04-07T20:11:30;95406.09;;;7.39;79.29
34185;BME280;20454;48.100;11.776;2023-04-07T20:13:56;95404.16;;;7.40;79.54
34185;BME280;20454;48.100;11.776;2023-04-07T20:16:22;95407.22;;;7.38;79.58
34185;BME280;20454;48.100;11.776;2023-04-07T20:18:47;95397.56;;;7.36;79.76
34185;BME280;20454;48.100;11.776;2023-04-07T20:21:15;95405.88;;;7.36;79.75
34185;BME280;20454;48.100;11.776;2023-04-07T20:23:41;95402.59;;;7.34;80.01
34185;BME280;20454;48.100;11.776;2023-04-07T20:26:08;95403.72;;;7.33;80.46
34185;BME280;20454;48.100;11.776;2023-04-07T20:28:34;95406.50;;;7.33;80.37
34185;BME280;20454;48.100;11.776;2023-04-07T20:30:59;95413.16;;;7.32;80.70
34185;BME280;20454;48.100;11.776;2023-04-07T20:33:25;95403.53;;;7.29;80.83
34185;BME280;20454;48.100;11.776;2023-04-07T20:35:51;95409.88;;;7.30;80.86
34185;BME280;20454;48.100;11.776;2023-04-07T20:38:17;95407.13;;;7.30;81.43
34185;BME280;20454;48.100;11.776;2023-04-07T20:40:43;95412.44;;;7.26;81.32
34185;BME280;20454;48.100;11.776;2023-04-07T20:43:09;95401.16;;;7.23;81.43
34185;BME280;20454;48.100;11.776;2023-04-07T20:45:34;95403.38;;;7.21;81.55
34185;BME280;20454;48.100;11.776;2023-04-07T20:48:00;95410.25;;;7.23;81.79
34185;BME280;20454;48.100;11.776;2023-04-07T20:50:26;95408.13;;;7.20;81.63
34185;BME280;20454;48.100;11.776;2023-04-07T20:52:54;95406.78;;;7.18;81.67
34185;BME280;20454;48.100;11.776;2023-04-07T20:55:20;95408.19;;;7.15;81.71
34185;BME280;20454;48.100;11.776;2023-04-07T20:57:46;95416.78;;;7.14;82.15
34185;BME280;20454;48.100;11.776;2023-04-07T21:00:11;95413.81;;;7.10;82.55
34185;BME280;20454;48.100;11.776;2023-04-07T21:02:37;95420.53;;;7.04;82.89
34185;BME280;20454;48.100;11.776;2023-04-07T21:05:03;95418.78;;;6.95;83.12
34185;BME280;20454;48.100;11.776;2023-04-07T21:07:29;95414.53;;;6.84;83.40
34185;BME280;20454;48.100;11.776;2023-04-07T21:09:55;95419.69;;;6.72;83.98
34185;BME280;20454;48.100;11.776;2023-04-07T21:12:21;95415.97;;;6.63;84.43
34185;BME280;20454;48.100;11.776;2023-04-07T21:14:47;95423.31;;;6.54;84.51
34185;BME280;20454;48.100;11.776;2023-04-07T21:17:13;95427.25;;;6.48;85.19
34185;BME280;20454;48.100;11.776;2023-04-07T21:19:39;95428.75;;;6.40;85.12
34185;BME280;20454;48.100;11.776;2023-04-07T21:22:05;95429.13;;;6.34;85.77
34185;BME280;20454;48.100;11.776;2023-04-07T21:24:31;95425.06;;;6.26;86.10
34185;BME280;20454;48.100;11.776;2023-04-07T21:26:56;95430.16;;;6.19;86.39
34185;BME280;20454;48.100;11.776;2023-04-07T21:29:22;95425.91;;;6.08;86.62
34185;BME280;20454;48.100;11.776;2023-04-07T21:31:48;95424.22;;;6.07;87.03
34185;BME280;20454;48.100;11.776;2023-04-07T21:34:15;95426.75;;;6.04;87.10
34185;BME280;20454;48.100;11.776;2023-04-07T21:36:40;95431.25;;;6.00;87.34
34185;BME280;20454;48.100;11.776;2023-04-07T21:39:07;95419.41;;;5.94;87.34
34185;BME280;20454;48.100;11.776;2023-04-07T21:41:33;95429.13;;;5.92;87.89
34185;BME280;20454;48.100;11.776;2023-04-07T21:43:59;95423.38;;;5.88;88.12
34185;BME280;20454;48.100;11.776;2023-04-07T21:46:25;95427.84;;;5.84;88.72
34185;BME280;20454;48.100;11.776;2023-04-07T21:48:51;95430.09;;;5.77;88.96
34185;BME280;20454;48.100;11.776;2023-04-07T21:51:17;95430.47;;;5.71;89.12
34185;BME280;20454;48.100;11.776;2023-04-07T21:53:43;95435.53;;;5.64;89.09
34185;BME280;20454;48.100;11.776;2023-04-07T21:56:08;95429.53;;;5.57;89.64
34185;BME280;20454;48.100;11.776;2023-04-07T21:58:34;95423.31;;;5.46;89.85
34185;BME280;20454;48.100;11.776;2023-04-07T22:01:00;95435.97;;;5.47;89.98
34185;BME280;20454;48.100;11.776;2023-04-07T22:03:26;95429.16;;;5.40;90.00
34185;BME280;20454;48.100;11.776;2023-04-07T22:05:57;95432.50;;;5.37;90.36
34185;BME280;20454;48.100;11.776;2023-04-07T22:08:23;95433.13;;;5.29;90.88
34185;BME280;20454;48.100;11.776;2023-04-07T22:10:49;95436.22;;;5.22;90.83
34185;BME280;20454;48.100;11.776;2023-04-07T22:13:15;95434.06;;;5.19;91.21
34185;BME280;20454;48.100;11.776;2023-04-07T22:15:41;95442.66;;;5.13;90.97
34185;BME280;20454;48.100;11.776;2023-04-07T22:18:07;95429.50;;;5.05;91.09
34185;BME280;20454;48.100;11.776;2023-04-07T22:20:33;95437.00;;;4.99;91.63
34185;BME280;20454;48.100;11.776;2023-04-07T22:22:58;95429.03;;;4.93;92.00
34185;BME280;20454;48.100;11.776;2023-04-07T22:25:24;95431.56;;;4.89;91.90
34185;BME280;20454;48.100;11.776;2023-04-07T22:27:50;95438.47;;;4.87;91.97
34185;BME280;20454;48.100;11.776;2023-04-07T22:30:19;95448.72;;;4.81;92.27
34185;BME280;20454;48.100;11.776;2023-04-07T22:32:44;95443.22;;;4.76;92.29
34185;BME280;20454;48.100;11.776;2023-04-07T22:35:10;95444.09;;;4.72;92.82
34185;BME280;20454;48.100;11.776;2023-04-07T22:37:36;95438.09;;;4.65;93.17
34185;BME280;20454;48.100;11.776;2023-04-07T22:40:02;95448.59;;;4.63;93.39
34185;BME280;20454;48.100;11.776;2023-04-07T22:42:28;95451.94;;;4.60;93.30
34185;BME280;20454;48.100;11.776;2023-04-07T22:44:53;95449.19;;;4.55;93.41
34185;BME280;20454;48.100;11.776;2023-04-07T22:47:19;95447.84;;;4.47;93.38
34185;BME280;20454;48.100;11.776;2023-04-07T22:49:46;95456.69;;;4.45;93.53
34185;BME280;20454;48.100;11.776;2023-04-07T22:52:11;95457.25;;;4.42;93.67
34185;BME280;20454;48.100;11.776;2023-04-07T22:54:37;95460.59;;;4.39;93.71
34185;BME280;20454;48.100;11.776;2023-04-07T22:57:02;95463.38;;;4.34;94.36
34185;BME280;20454;48.100;11.776;2023-04-07T22:59:28;95450.47;;;4.29;94.60
34185;BME280;20454;48.100;11.776;2023-04-07T23:01:54;95452.97;;;4.26;94.16
34185;BME280;20454;48.100;11.776;2023-04-07T23:04:20;95456.84;;;4.20;94.44
34185;BME280;20454;48.100;11.776;2023-04-07T23:06:46;95466.22;;;4.19;94.37
34185;BME280;20454;48.100;11.776;2023-04-07T23:09:12;95467.88;;;4.15;94.48
34185;BME280;20454;48.100;11.776;2023-04-07T23:11:38;95464.06;;;4.11;94.96
34185;BME280;20454;48.100;11.776;2023-04-07T23:14:03;95475.63;;;4.08;94.68
34185;BME280;20454;48.100;11.776;2023-04-07T23:16:31;95466.28;;;4.04;94.89
34185;BME280;20454;48.100;11.776;2023-04-07T23:18:57;95470.69;;;4.00;94.80
34185;BME280;20454;48.100;11.776;2023-04-07T23:21:23;95476.50;;;3.98;95.09
34185;BME280;20454;48.100;11.776;2023-04-07T23:23:48;95467.47;;;3.88;95.13
34185;BME280;20454;48.100;11.776;2023-04-07T23:26:15;95479.81;;;3.90;95.01
34185;BME280;20454;48.100;11.776;2023-04-07T23:28:40;95482.03;;;3.88;95.60
34185;BME280;20454;48.100;11.776;2023-04-07T23:31:06;95471.34;;;3.82;95.55
34185;BME280;20454;48.100;11.776;2023-04-07T23:33:32;95476.00;;;3.81;95.37
34185;BME280;20454;48.100;11.776;2023-04-07T23:35:58;95465.59;;;3.78;95.52
34185;BME280;20454;48.100;11.776;2023-04-07T23:38:24;95467.50;;;3.73;96.15
34185;BME280;20454;48.100;11.776;2023-04-07T23:40:50;95467.53;;;3.68;95.78
34185;BME280;20454;48.100;11.776;2023-04-07T23:43:16;95480.19;;;3.69;96.31
34185;BME280;20454;48.100;11.776;2023-04-07T23:45:41;95473.06;;;3.68;96.22
34185;BME280;20454;48.100;11.776;2023-04-07T23:48:07;95474.16;;;3.67;96.69
34185;BME280;20454;48.100;11.776;2023-04-07T23:50:32;95474.97;;;3.62;96.87
34185;BME280;20454;48.100;11.776;2023-04-07T23:52:58;95472.22;;;3.62;97.45
34185;BME280;20454;48.100;11.776;2023-04-07T23:55:24;95467.53;;;3.68;98.29
34185;BME280;20454;48.100;11.776;2023-04-07T23:57:49;95468.34;;;3.68;99.22
